Details for All Nippon Airways at RJAA




Go Back


Latest METAR
Local Time

RJAA 232330Z VRB02KT 9999 FEW030 SCT/// 04/00 Q1024 NOSIG

24/02/2018, 09:03:20

Description
Results
All Nippon Airways Logo
Number of Pilots based at RJAA
0 Pilots Based here
Number of All Nippon Airways Flights Departed from RJAA
1 Flights Departed
Number of All Nippon Airways Flights Arrived at RJAA
1 Flights Arrived
Number of All Nippon Airways Schedules Departing from RJAA
48 Schedules
Number of All Nippon Airways Schedules Arriving at RJAA
49 Schedules
Number of All Nippon Airways Schedules Departing from RJAA availible today
48 Schedules Today
Number of All Nippon Airways Schedules Arriving at RJAA availible today
49 Schedules Today
Average Landing Rate at RJAA
-67 fpm
All Nippon Airways Average Landing Rate at RJAA
-51 fpm
Total Fuel Purchased at RJAA by All Nippon Airways
4,261.05 kgs / 9,393.91 lbs

Pilots Based at RJAA


Pilot ID
Pilot Name
Pilot Rank
No. of Flights
No. of Flying Hours
There are no pilots assigned to this hub!   Will you be the first?
Content